EGOP

Pembrey Sands Airport

Pembrey Sands, United Kingdom

EGOP 241950Z AUTO 30009KT 3700 // FEW026/// BKN031/// 15/15 Q1018

Observed Flight Rules
Sep-24 @ 19:50 UTC (an hour ago)
 
Instrument Flight Rules
Wind Visibility Clouds
300° at 9 knots 3,701 meters
  • Few at 2,600' AGL
  • Broken at 3,100' AGL
Temperatures Readings
Current 15°C / 59°F
Dewpoint 15°C / 59°F
Humidity 100%
Altimeter 30.06" Hg
Pressure 1018 hPa
Elevation 6
Observed Flight Rules
Sep-24 @ 19:50 UTC
(an hour ago)
 
IFR
Wind Visibility
300° at 9 knots 3,701 meters
Clouds
  • Few at 2,600' AGL
  • Broken at 3,100' AGL
Temperature Dewpoint
15°C / 59°F 15°C / 59°F
Humidity Altimeter Pressure
100% 30.06" Hg 1018 hPa